createdAt,value
2018-12-10T00:00:03.160Z,1006.64
2018-12-10T00:04:58.866Z,1006.68
2018-12-10T00:09:56.086Z,1006.77
2018-12-10T00:14:52.269Z,1006.82
2018-12-10T00:19:48.063Z,1006.84
2018-12-10T00:24:43.958Z,1006.93
2018-12-10T00:29:40.514Z,1007.01
2018-12-10T00:34:35.913Z,1006.98
2018-12-10T00:39:32.363Z,1007.17
2018-12-10T00:44:28.659Z,1007.16
2018-12-10T00:49:24.063Z,1007.20
2018-12-10T00:54:19.927Z,1007.28
2018-12-10T00:59:16.419Z,1007.37
2018-12-10T01:04:12.355Z,1007.48
2018-12-10T01:09:08.900Z,1007.35
2018-12-10T01:14:04.451Z,1007.37
2018-12-10T01:19:00.107Z,1007.64
2018-12-10T01:23:55.920Z,1007.56
2018-12-10T01:28:51.650Z,1007.64
2018-12-10T01:33:47.406Z,1007.72
2018-12-10T01:38:43.108Z,1007.76
2018-12-10T01:43:38.703Z,1007.89
2018-12-10T01:48:35.634Z,1008.06
2018-12-10T01:53:31.161Z,1008.13
2018-12-10T01:58:26.981Z,1008.25
2018-12-10T02:03:22.816Z,1008.30
2018-12-10T02:08:18.478Z,1008.27
2018-12-10T02:13:14.181Z,1008.29
2018-12-10T02:18:09.707Z,1008.30
2018-12-10T02:23:05.630Z,1008.43
2018-12-10T02:28:01.314Z,1008.40
2018-12-10T02:32:56.802Z,1008.43
2018-12-10T02:37:52.477Z,1008.43
2018-12-10T02:42:48.824Z,1008.41
2018-12-10T02:47:44.818Z,1008.48
2018-12-10T02:52:41.464Z,1008.55
2018-12-10T02:57:37.000Z,1008.69
2018-12-10T03:02:33.149Z,1008.57
2018-12-10T03:07:28.845Z,1008.58
2018-12-10T03:12:25.437Z,1008.75
2018-12-10T03:17:20.835Z,1008.79
2018-12-10T03:22:16.330Z,1008.90
2018-12-10T03:27:11.542Z,1008.99
2018-12-10T03:32:07.375Z,1009.03
2018-12-10T03:37:03.009Z,1009.13
2018-12-10T03:41:59.585Z,1009.17
2018-12-10T03:46:55.322Z,1009.19
2018-12-10T03:51:51.062Z,1009.25
2018-12-10T03:56:47.072Z,1009.34
2018-12-10T04:01:42.893Z,1009.34
2018-12-10T04:06:38.378Z,1009.31
2018-12-10T04:11:34.148Z,1009.33
2018-12-10T04:16:30.546Z,1009.45
2018-12-10T04:21:26.104Z,1009.40
2018-12-10T04:26:21.731Z,1009.37
2018-12-10T04:31:16.953Z,1009.45
2018-12-10T04:36:12.862Z,1009.39
2018-12-10T04:41:08.692Z,1009.54
2018-12-10T04:46:05.354Z,1009.47
2018-12-10T04:51:00.363Z,1009.67
2018-12-10T04:55:56.445Z,1009.77
2018-12-10T05:00:53.202Z,1009.95
2018-12-10T05:05:48.525Z,1009.95
2018-12-10T05:10:44.051Z,1009.98
2018-12-10T05:15:39.759Z,1010.13
2018-12-10T05:20:35.372Z,1010.23
2018-12-10T05:25:30.796Z,1010.16
2018-12-10T05:30:26.434Z,1010.25
2018-12-10T05:35:23.288Z,1010.16
2018-12-10T05:40:18.373Z,1010.25
2018-12-10T05:45:14.056Z,1010.34
2018-12-10T05:50:09.639Z,1010.36
2018-12-10T05:55:06.297Z,1010.50
2018-12-10T06:00:02.904Z,1010.42
2018-12-10T06:04:58.054Z,1010.59
2018-12-10T06:09:54.734Z,1010.59
2018-12-10T06:14:50.097Z,1010.61
2018-12-10T06:19:45.692Z,1010.67
2018-12-10T06:24:42.170Z,1010.70
2018-12-10T06:29:37.596Z,1010.72
2018-12-10T06:34:34.198Z,1010.74
2018-12-10T06:39:29.762Z,1010.82
2018-12-10T06:44:25.867Z,1010.79
2018-12-10T06:49:21.674Z,1010.88
2018-12-10T06:54:17.257Z,1010.98
2018-12-10T06:59:13.972Z,1010.99
2018-12-10T07:04:10.562Z,1010.91
2018-12-10T07:09:07.344Z,1011.00
2018-12-10T07:14:03.852Z,1011.13
2018-12-10T07:18:59.114Z,1011.20
2018-12-10T07:23:54.791Z,1011.19
2018-12-10T07:28:50.589Z,1011.31
2018-12-10T07:33:47.215Z,1011.28
2018-12-10T07:38:43.020Z,1011.35
2018-12-10T07:43:38.972Z,1011.46
2018-12-10T07:48:34.766Z,1011.44
2018-12-10T07:53:30.521Z,1011.46
2018-12-10T07:58:26.324Z,1011.60
2018-12-10T08:03:23.104Z,1011.57
2018-12-10T08:08:19.555Z,1011.76
2018-12-10T08:13:14.616Z,1011.77
2018-12-10T08:18:11.447Z,1011.83
2018-12-10T08:23:06.697Z,1011.87
2018-12-10T08:28:02.328Z,1011.97
2018-12-10T08:32:59.224Z,1012.01
2018-12-10T08:37:54.803Z,1011.96
2018-12-10T08:42:52.884Z,1012.04
2018-12-10T08:47:48.805Z,1011.87
2018-12-10T08:52:44.262Z,1011.97
2018-12-10T08:57:40.233Z,1012.08
2018-12-10T09:02:36.622Z,1012.21
2018-12-10T09:07:33.442Z,1012.27
2018-12-10T09:12:29.801Z,1012.33
2018-12-10T09:17:25.158Z,1012.36
2018-12-10T09:22:22.190Z,1012.36
2018-12-10T09:27:17.851Z,1012.53
2018-12-10T09:32:13.755Z,1012.54
2018-12-10T09:37:10.524Z,1012.48
2018-12-10T09:42:07.064Z,1012.58
2018-12-10T09:47:03.475Z,1012.61
2018-12-10T09:52:03.008Z,1012.56
2018-12-10T09:56:58.901Z,1012.38
2018-12-10T10:01:55.467Z,1012.35
2018-12-10T10:06:55.400Z,1012.31
2018-12-10T10:11:50.447Z,1012.40
2018-12-10T10:16:46.521Z,1012.44
2018-12-10T10:21:42.324Z,1012.36
2018-12-10T10:26:43.736Z,1012.31
2018-12-10T10:31:37.980Z,1012.51
2018-12-10T10:36:34.830Z,1012.46
2018-12-10T10:41:31.657Z,1012.64
2018-12-10T10:46:27.216Z,1012.47
2018-12-10T10:51:22.855Z,1012.49
2018-12-10T10:56:19.367Z,1012.45
2018-12-10T11:01:20.574Z,1012.43
2018-12-10T11:06:15.804Z,1012.58
2018-12-10T11:11:14.181Z,1012.46
2018-12-10T11:16:10.255Z,1012.47
2018-12-10T11:21:06.942Z,1012.41
2018-12-10T11:26:02.919Z,1012.31
2018-12-10T11:30:58.692Z,1012.36
2018-12-10T11:35:55.492Z,1012.39
2018-12-10T11:40:52.133Z,1012.51
2018-12-10T11:45:48.117Z,1012.47
2018-12-10T11:50:44.756Z,1012.48
2018-12-10T11:55:41.026Z,1012.49
2018-12-10T12:00:36.199Z,1012.40
2018-12-10T12:05:31.928Z,1012.27
2018-12-10T12:10:28.518Z,1012.29
2018-12-10T12:15:23.962Z,1012.22
2018-12-10T12:20:20.385Z,1012.26
2018-12-10T12:25:16.138Z,1012.19
2018-12-10T12:30:11.875Z,1012.12
2018-12-10T12:35:10.399Z,1012.06
2018-12-10T12:40:05.691Z,1012.08
2018-12-10T12:45:02.593Z,1012.06
2018-12-10T12:49:58.073Z,1011.99
2018-12-10T12:54:53.981Z,1011.87
2018-12-10T12:59:50.969Z,1011.90
2018-12-10T13:04:46.338Z,1011.83
2018-12-10T13:09:42.633Z,1011.76
2018-12-10T13:14:38.623Z,1011.82
2018-12-10T13:19:34.416Z,1011.82
2018-12-10T13:24:35.808Z,1011.73
2018-12-10T13:29:31.594Z,1011.75
2018-12-10T13:34:26.779Z,1012.05
2018-12-10T13:39:23.439Z,1012.18
2018-12-10T13:44:18.235Z,1012.23
2018-12-10T13:49:14.602Z,1012.05
2018-12-10T13:54:09.389Z,1012.10
2018-12-10T13:59:04.776Z,1012.15
2018-12-10T14:04:00.573Z,1012.31
2018-12-10T14:08:56.156Z,1012.38
2018-12-10T14:13:51.857Z,1012.43
2018-12-10T14:18:47.362Z,1012.38
2018-12-10T14:23:43.759Z,1012.35
2018-12-10T14:28:38.825Z,1012.46
2018-12-10T14:33:34.495Z,1012.45
2018-12-10T14:38:30.309Z,1012.31
2018-12-10T14:43:26.644Z,1012.36
2018-12-10T14:48:22.137Z,1012.28
2018-12-10T14:53:18.834Z,1012.34
2018-12-10T14:58:15.427Z,1012.36
2018-12-10T15:03:10.849Z,1012.47
2018-12-10T15:08:06.687Z,1012.67
2018-12-10T15:13:02.423Z,1012.74
2018-12-10T15:17:59.053Z,1012.73
2018-12-10T15:22:56.371Z,1012.80
2018-12-10T15:27:51.641Z,1012.74
2018-12-10T15:32:47.269Z,1012.85
2018-12-10T15:37:42.989Z,1012.92
2018-12-10T15:42:40.040Z,1012.98
2018-12-10T15:47:34.972Z,1013.04
2018-12-10T15:52:30.611Z,1012.93
2018-12-10T15:57:26.143Z,1013.01
2018-12-10T16:02:22.030Z,1013.02
2018-12-10T16:07:17.759Z,1013.04
2018-12-10T16:12:13.393Z,1013.02
2018-12-10T16:17:09.064Z,1013.01
2018-12-10T16:22:05.794Z,1012.99
2018-12-10T16:27:01.718Z,1013.01
2018-12-10T16:31:57.895Z,1013.10
2018-12-10T16:36:54.400Z,1013.06
2018-12-10T16:41:49.971Z,1013.23
2018-12-10T16:46:46.685Z,1013.11
2018-12-10T16:51:42.184Z,1013.27
2018-12-10T16:56:37.953Z,1013.20
2018-12-10T17:01:33.690Z,1013.24
2018-12-10T17:06:29.378Z,1013.26
2018-12-10T17:11:26.037Z,1013.17
2018-12-10T17:16:21.412Z,1013.21
2018-12-10T17:21:17.055Z,1013.22
2018-12-10T17:26:12.814Z,1013.25
2018-12-10T17:31:08.482Z,1013.26
2018-12-10T17:36:04.069Z,1013.35
2018-12-10T17:40:59.802Z,1013.41
2018-12-10T17:45:55.591Z,1013.40
2018-12-10T17:50:51.474Z,1013.35
2018-12-10T17:55:47.325Z,1013.36
2018-12-10T18:00:43.788Z,1013.39
2018-12-10T18:05:39.722Z,1013.31
2018-12-10T18:10:35.374Z,1013.37
2018-12-10T18:15:31.647Z,1013.32
2018-12-10T18:20:27.387Z,1013.44
2018-12-10T18:25:23.473Z,1013.33
2018-12-10T18:30:19.067Z,1013.25
2018-12-10T18:35:14.781Z,1013.15
2018-12-10T18:40:11.661Z,1013.22
2018-12-10T18:45:07.458Z,1013.35
2018-12-10T18:50:03.345Z,1013.51
2018-12-10T18:54:58.836Z,1013.64
2018-12-10T18:59:54.449Z,1013.50
2018-12-10T19:04:49.973Z,1013.51
2018-12-10T19:09:45.342Z,1013.52
2018-12-10T19:14:40.933Z,1013.54
2018-12-10T19:19:36.713Z,1013.59
2018-12-10T19:24:32.865Z,1013.60
2018-12-10T19:29:28.524Z,1013.78
2018-12-10T19:34:24.319Z,1013.75
2018-12-10T19:39:19.744Z,1013.66
2018-12-10T19:44:16.499Z,1013.68
2018-12-10T19:49:11.828Z,1013.71
2018-12-10T19:54:07.582Z,1013.79
2018-12-10T19:59:03.353Z,1013.77
2018-12-10T20:03:59.090Z,1013.79
2018-12-10T20:08:54.894Z,1013.92
2018-12-10T20:13:51.392Z,1013.87
2018-12-10T20:18:46.706Z,1013.79
2018-12-10T20:23:42.155Z,1013.81
2018-12-10T20:28:38.619Z,1013.88
2018-12-10T20:33:34.351Z,1013.80
2018-12-10T20:38:30.404Z,1013.84
2018-12-10T20:43:26.046Z,1013.80
2018-12-10T20:48:22.838Z,1013.91
2018-12-10T20:53:18.221Z,1013.88
2018-12-10T20:58:13.894Z,1013.88
2018-12-10T21:03:09.627Z,1014.05
2018-12-10T21:08:06.388Z,1014.11
2018-12-10T21:13:02.891Z,1014.04
2018-12-10T21:18:04.380Z,1014.10
2018-12-10T21:22:58.743Z,1013.97
2018-12-10T21:27:53.949Z,1013.99
2018-12-10T21:32:49.628Z,1013.95
2018-12-10T21:37:45.487Z,1013.98
2018-12-10T21:42:41.104Z,1013.97
2018-12-10T21:47:36.799Z,1014.01
2018-12-10T21:52:33.484Z,1014.02
2018-12-10T21:57:28.828Z,1014.19
2018-12-10T22:02:24.569Z,1014.09
2018-12-10T22:07:20.125Z,1014.10
2018-12-10T22:12:15.662Z,1014.16
2018-12-10T22:17:12.581Z,1014.21
2018-12-10T22:22:07.926Z,1014.12
2018-12-10T22:27:04.418Z,1014.05
2018-12-10T22:32:00.161Z,1014.05
2018-12-10T22:36:55.846Z,1014.13
2018-12-10T22:41:57.122Z,1014.36
2018-12-10T22:46:52.664Z,1014.29
2018-12-10T22:51:49.120Z,1014.25
2018-12-10T22:56:44.597Z,1014.18
2018-12-10T23:01:41.039Z,1014.22
2018-12-10T23:06:36.671Z,1014.21
2018-12-10T23:11:34.264Z,1014.15
2018-12-10T23:16:29.289Z,1014.10
2018-12-10T23:21:25.003Z,1014.16
2018-12-10T23:26:20.816Z,1014.22
2018-12-10T23:31:17.414Z,1014.11
2018-12-10T23:36:13.711Z,1014.23
2018-12-10T23:41:09.227Z,1014.32
2018-12-10T23:46:05.062Z,1014.43
2018-12-10T23:51:02.465Z,1014.41
2018-12-10T23:55:57.906Z,1014.44
